Green Bay, WI

11:27 PM CDT on October 25, 2014 (GMT -0500)
Shadow Ridge | Change Station
CLOSE
Current Station
Personal Weather Station
Location: De Pere, WI
Elevation: 640 ft
Nearby Weather Stations

Elev 640 ft 44.44 °N, 88.11 °W | Updated 1 minute ago

Clear
Clear
47.7 °F
Feels Like 46 °F
N
4.2
Wind Variable Wind from West

Today
High -- | Low -- °F
--% Chance of Precip.
Yesterday
High -- | Low -- °F
Precip. -- in
7:20 AM 5:51 PM
Waxing Crescent, 6% visible
Pressure 29.93 in
Visibility 10.0 miles
Clouds Clear
Windchill 46 °F
Dew Point 33 °F
Humidity 56%
Rainfall 0.00 in
Snow Depth Not available.
UV 0 out of 12
Pollen 1.90 out of 12
PM2.5 Good
Flu Activity Sporadic
METAR KGRB 260353Z 28009KT 10SM CLR 09/M01 A2992 RMK AO2 SLP134 T00891006

More Conditions Fewer Conditions

Pressure 29.93 in
Visibility 10.0 miles
Clouds Clear
Windchill 46 °F
Dew Point 33 °F
Humidity 56%
Rainfall 0.00 in
Snow Depth Not available.
UV 0 out of 12
Pollen 1.90 out of 12
PM2.5 Good
Flu Activity Sporadic
METAR KGRB 260353Z 28009KT 10SM CLR 09/M01 A2992 RMK AO2 SLP134 T00891006

More Conditions Fewer Conditions

10-Day Weather Forecast

Almanac

Astronomy

Oct. 25, 2014 Rise Set
Actual Time 7:20 AM CDT 5:51 PM CDT
Civil Twilight 6:50 AM CDT 6:21 PM CDT
Nautical Twilight 6:16 AM CDT 6:55 PM CDT
Astronomical Twilight 5:42 AM CDT 7:29 PM CDT
Moon 9:02 AM CDT (10/25) 7:11 PM CDT (10/25)
Length of Visible Light 11h 30m
Length of Day
10h 31m
Tomorrow will be 2m 51s shorter.
Waxing Crescent, 6% of the Moon is Illuminated
Oct 26
Waxing Crescent
Oct 30
First Quarter
Nov 6
Full
Nov 14
Last Quarter
Nov 22
New

Yesterday's Extremes

State Highs State Lows

Community

WunderPhotos

Upload Photos

1,765,110 photos uploaded!

Nearby

Air Quality

  Air Quality AQ Index Pollutant
Yesterday Moderate
PM2.5
Current Good
PM2.5
Saturday Good
PM2.5
Sunday Good
PM2.5
Monday Moderate
PM2.5

Snow Depth

Station Depth Elevation
No new snow has been reported.

Earthquake Activity

City Distance Mag. Time & Date
No recent earthquake activity has been reported nearby.
Minimum magnitude displayed is 2.5.

Coastal Water Temperatures

Place Temperature
Menominee, MI 50.0 °F

Nearby Weather Stations